Time;durP1;ratioP1;P1;durP2;ratioP2;P2;SDS_P1;SDS_P2;PMS_P1;PMS_P2;Temp;Humidity;BMP_temperature;BMP_pressure;BME280_temperature;BME280_humidity;BME280_pressure;Samples;Min_cycle;Max_cycle;Signal;HPM_P1;HPM_P2
2021/06/30 00:00:49;;;;;;;8.68;5.95;;;20.40;87.00;;;;;;4980246;28;20022;-75
2021/06/30 00:03:14;;;;;;;8.05;5.75;;;20.40;87.20;;;;;;5005566;28;20395;-74
2021/06/30 00:05:40;;;;;;;10.75;6.15;;;20.40;87.30;;;;;;5014288;28;20116;-73
2021/06/30 00:08:06;;;;;;;9.65;6.78;;;20.30;87.30;;;;;;4990037;28;20061;-73
2021/06/30 00:10:32;;;;;;;9.32;6.45;;;20.30;87.50;;;;;;4982491;28;20449;-73
2021/06/30 00:12:58;;;;;;;10.55;6.68;;;20.30;87.60;;;;;;5014057;28;20089;-71
2021/06/30 00:15:29;;;;;;;12.70;6.75;;;20.30;87.80;;;;;;4996408;28;20037;-79
2021/06/30 00:17:54;;;;;;;10.80;6.85;;;20.30;88.00;;;;;;5003649;28;20030;-74
2021/06/30 00:20:21;;;;;;;11.80;7.20;;;20.30;88.20;;;;;;5007399;28;20186;-74
2021/06/30 00:22:47;;;;;;;10.13;6.70;;;20.30;88.40;;;;;;4997584;28;20120;-72
2021/06/30 00:25:13;;;;;;;12.65;6.97;;;20.20;88.50;;;;;;4982412;28;20030;-73
2021/06/30 00:27:39;;;;;;;10.63;7.25;;;20.20;88.50;;;;;;4996438;28;20017;-74
2021/06/30 00:30:07;;;;;;;17.55;7.72;;;20.20;88.50;;;;;;4996857;28;20456;-75
2021/06/30 00:32:32;;;;;;;11.88;7.95;;;20.20;88.60;;;;;;4996611;28;20049;-72
2021/06/30 00:34:58;;;;;;;13.00;8.20;;;20.10;88.60;;;;;;4994653;28;20156;-73
2021/06/30 00:37:24;;;;;;;16.50;9.02;;;20.10;88.70;;;;;;4994707;28;20506;-75
2021/06/30 00:39:50;;;;;;;13.63;8.98;;;20.10;88.90;;;;;;5015737;28;20034;-74
2021/06/30 00:42:15;;;;;;;13.90;8.70;;;20.00;89.20;;;;;;5016057;28;20061;-73
2021/06/30 00:44:44;;;;;;;14.73;8.88;;;20.00;89.40;;;;;;5015955;28;20041;-74
2021/06/30 00:47:10;;;;;;;14.18;8.40;;;20.00;89.60;;;;;;5014130;28;20419;-75
2021/06/30 00:49:37;;;;;;;15.05;8.07;;;19.90;89.60;;;;;;4990212;28;20092;-74
2021/06/30 00:52:03;;;;;;;13.50;7.93;;;19.90;89.80;;;;;;5005462;28;20057;-75
2021/06/30 00:54:29;;;;;;;11.55;7.10;;;19.80;89.70;;;;;;4995873;28;20065;-75
2021/06/30 00:56:55;;;;;;;15.95;8.07;;;19.90;89.80;;;;;;4986848;28;20457;-74
2021/06/30 00:59:21;;;;;;;11.85;7.72;;;19.90;90.10;;;;;;5009145;28;20033;-72
2021/06/30 01:01:47;;;;;;;14.10;8.88;;;19.80;89.50;;;;;;4995910;28;20365;-73
2021/06/30 01:04:12;;;;;;;14.63;10.07;;;19.80;89.80;;;;;;5012881;28;20064;-73
2021/06/30 01:06:38;;;;;;;17.00;10.15;;;19.80;89.80;;;;;;4985596;28;20038;-79
2021/06/30 01:09:06;;;;;;;13.75;10.65;;;19.70;90.00;;;;;;4983427;28;20388;-76
2021/06/30 01:11:33;;;;;;;15.57;9.27;;;19.70;90.10;;;;;;4991474;28;20026;-75
2021/06/30 01:13:59;;;;;;;16.10;8.90;;;19.80;90.00;;;;;;4993510;28;20133;-70
2021/06/30 01:16:25;;;;;;;14.30;7.78;;;19.80;89.80;;;;;;4975900;28;20395;-72
2021/06/30 01:18:51;;;;;;;15.60;7.78;;;19.80;89.70;;;;;;4994295;28;20109;-74
2021/06/30 01:21:16;;;;;;;12.25;8.70;;;19.80;89.20;;;;;;4997811;28;20384;-74
2021/06/30 01:23:44;;;;;;;14.25;8.20;;;19.80;88.90;;;;;;4997476;28;20114;-74
2021/06/30 01:26:10;;;;;;;11.63;7.55;;;19.80;88.80;;;;;;4997475;28;20432;-74
2021/06/30 01:28:36;;;;;;;10.32;7.18;;;19.80;88.60;;;;;;4980296;28;20037;-74
2021/06/30 01:31:04;;;;;;;12.27;7.50;;;19.80;88.50;;;;;;4980480;28;20445;-74
2021/06/30 01:33:30;;;;;;;11.23;6.90;;;19.80;88.30;;;;;;4979985;28;20027;-73
2021/06/30 01:35:56;;;;;;;13.07;6.57;;;19.80;87.90;;;;;;4979433;28;20065;-73
2021/06/30 01:38:27;;;;;;;9.25;6.15;;;19.80;87.80;;;;;;4997031;28;20028;-73
2021/06/30 01:40:54;;;;;;;11.15;6.53;;;19.80;88.00;;;;;;4982870;28;20037;-74
2021/06/30 01:43:20;;;;;;;8.75;6.00;;;19.70;87.80;;;;;;5008252;28;20101;-72
2021/06/30 01:45:49;;;;;;;9.00;6.38;;;19.70;87.80;;;;;;4979829;28;20048;-73
2021/06/30 01:48:14;;;;;;;9.20;6.53;;;19.70;87.90;;;;;;4979621;28;20030;-74
2021/06/30 01:50:40;;;;;;;9.88;6.20;;;19.70;88.10;;;;;;4997090;28;20462;-73
2021/06/30 01:53:06;;;;;;;10.50;6.55;;;19.60;88.40;;;;;;4996942;28;20080;-74
2021/06/30 01:55:32;;;;;;;11.82;7.00;;;19.60;88.60;;;;;;4997298;28;20096;-74
2021/06/30 01:57:58;;;;;;;9.75;7.07;;;19.50;88.80;;;;;;4979475;28;20369;-74
2021/06/30 02:00:24;;;;;;;10.32;6.57;;;19.50;88.90;;;;;;4996918;28;20088;-74
2021/06/30 02:02:50;;;;;;;13.02;7.13;;;19.40;89.10;;;;;;4998139;28;20384;-71
2021/06/30 02:05:18;;;;;;;13.98;6.90;;;19.40;89.40;;;;;;4991893;28;20030;-71
2021/06/30 02:07:56;;;;;;;11.40;6.22;;;19.50;89.40;;;;;;4980075;28;20456;-73
2021/06/30 02:10:23;;;;;;;11.38;6.25;;;19.50;89.30;;;;;;4967077;28;20038;-71
2021/06/30 02:12:49;;;;;;;9.73;6.45;;;19.50;89.10;;;;;;4998097;28;20058;-74
2021/06/30 02:15:19;;;;;;;10.57;6.35;;;19.60;88.60;;;;;;4999581;28;20137;-75
2021/06/30 02:17:47;;;;;;;11.25;6.75;;;19.60;88.10;;;;;;4980450;28;20487;-74
2021/06/30 02:20:13;;;;;;;9.85;6.38;;;19.60;88.20;;;;;;4979130;28;20026;-73
2021/06/30 02:22:39;;;;;;;10.57;6.32;;;19.60;87.90;;;;;;4996580;28;20026;-74
2021/06/30 02:25:16;;;;;;;10.00;6.38;;;19.70;88.00;;;;;;4978999;28;20467;-73
2021/06/30 02:27:42;;;;;;;15.23;6.78;;;19.70;87.90;;;;;;4996508;28;20419;-73
2021/06/30 02:30:11;;;;;;;10.75;6.50;;;19.70;87.90;;;;;;4978402;28;20429;-74
2021/06/30 02:32:38;;;;;;;11.73;6.93;;;19.70;87.90;;;;;;4978622;28;20029;-75
2021/06/30 02:35:06;;;;;;;12.18;7.10;;;19.70;87.90;;;;;;4973169;28;20047;-74
2021/06/30 02:37:32;;;;;;;11.63;6.80;;;19.70;87.80;;;;;;4995884;28;20101;-75
2021/06/30 02:39:58;;;;;;;12.10;7.00;;;19.70;87.70;;;;;;4996466;28;20105;-74
2021/06/30 02:42:24;;;;;;;12.68;6.72;;;19.70;87.80;;;;;;4978654;28;20022;-76
2021/06/30 02:44:50;;;;;;;12.85;7.07;;;19.70;87.80;;;;;;4979211;28;20026;-75
2021/06/30 02:47:15;;;;;;;14.75;7.15;;;19.70;88.10;;;;;;4996134;28;20102;-75
2021/06/30 02:49:41;;;;;;;17.13;6.85;;;19.70;88.10;;;;;;4978833;28;20113;-75
2021/06/30 02:52:08;;;;;;;12.27;6.63;;;19.80;88.00;;;;;;4996089;28;20027;-74
2021/06/30 02:54:33;;;;;;;15.30;6.40;;;19.90;87.60;;;;;;4978119;28;20035;-74
2021/06/30 02:56:59;;;;;;;10.20;6.47;;;20.00;87.10;;;;;;4963779;28;20033;-74
2021/06/30 02:59:25;;;;;;;10.55;5.72;;;20.10;86.60;;;;;;4993955;28;20077;-74
2021/06/30 03:01:50;;;;;;;10.32;5.43;;;20.20;86.40;;;;;;4995831;28;20030;-72
2021/06/30 03:04:16;;;;;;;11.90;5.70;;;20.50;86.80;;;;;;4977956;28;20035;-73
2021/06/30 03:06:42;;;;;;;10.45;5.53;;;20.90;86.10;;;;;;4984112;28;20483;-72
2021/06/30 03:09:08;;;;;;;7.25;5.13;;;21.30;85.20;;;;;;4995738;28;20022;-73
2021/06/30 03:11:35;;;;;;;8.40;5.65;;;21.60;83.60;;;;;;4978059;28;20421;-72
2021/06/30 03:14:00;;;;;;;9.95;5.65;;;22.00;82.00;;;;;;4977754;28;20062;-72
2021/06/30 03:16:26;;;;;;;8.63;5.03;;;22.30;80.50;;;;;;4995208;28;20069;-72
2021/06/30 03:18:51;;;;;;;8.00;5.00;;;22.70;78.90;;;;;;4995584;28;20062;-72
2021/06/30 03:21:17;;;;;;;13.20;6.00;;;23.00;77.60;;;;;;4995710;28;20038;-73
2021/06/30 03:23:43;;;;;;;9.80;5.65;;;23.40;76.40;;;;;;4995242;28;20034;-71
2021/06/30 03:26:08;;;;;;;9.70;5.72;;;23.70;75.90;;;;;;4995276;28;20416;-72
2021/06/30 03:28:34;;;;;;;10.90;5.72;;;23.90;74.00;;;;;;4977679;28;20037;-71
2021/06/30 03:31:00;;;;;;;8.95;5.55;;;24.20;73.10;;;;;;4995313;28;20449;-68
2021/06/30 03:33:26;;;;;;;9.88;5.30;;;24.50;72.20;;;;;;4995375;28;20104;-74
2021/06/30 03:35:52;;;;;;;6.93;5.10;;;24.70;71.30;;;;;;4974169;28;20479;-71
2021/06/30 03:38:18;;;;;;;12.35;5.72;;;25.00;70.20;;;;;;4995030;28;20038;-70
2021/06/30 03:40:43;;;;;;;10.63;5.72;;;25.20;69.20;;;;;;4977484;28;20447;-73
2021/06/30 03:43:09;;;;;;;8.95;6.13;;;25.50;68.00;;;;;;4976824;28;20033;-72
2021/06/30 03:45:34;;;;;;;14.88;6.10;;;25.90;67.30;;;;;;4993476;28;20065;-72
2021/06/30 03:48:00;;;;;;;10.02;7.05;;;26.10;67.00;;;;;;4997649;28;20031;-71
2021/06/30 03:50:26;;;;;;;13.98;7.30;;;26.30;66.20;;;;;;4997434;28;20053;-77
2021/06/30 03:52:52;;;;;;;17.65;8.90;;;26.30;65.60;;;;;;4990296;28;20080;-71
2021/06/30 03:55:18;;;;;;;19.00;11.43;;;26.30;65.30;;;;;;4996064;28;20068;-71
2021/06/30 03:57:43;;;;;;;20.08;11.23;;;26.40;65.10;;;;;;4995260;28;20022;-74
2021/06/30 04:00:10;;;;;;;16.00;9.80;;;26.50;65.00;;;;;;4977160;28;20080;-72
2021/06/30 04:02:35;;;;;;;15.45;9.65;;;26.60;64.60;;;;;;4977338;28;20034;-72
2021/06/30 04:05:01;;;;;;;14.63;9.88;;;26.80;64.20;;;;;;4976932;28;20388;-69
2021/06/30 04:07:27;;;;;;;21.05;14.02;;;27.00;63.90;;;;;;4977088;28;20026;-71
2021/06/30 04:09:52;;;;;;;20.75;14.00;;;27.10;63.20;;;;;;4994693;28;20376;-73
2021/06/30 04:12:20;;;;;;;17.67;12.57;;;27.20;62.70;;;;;;4976920;28;20036;-72
2021/06/30 04:14:46;;;;;;;17.85;12.02;;;27.30;62.40;;;;;;4981016;28;20397;-71
2021/06/30 04:17:12;;;;;;;15.32;10.10;;;27.40;62.30;;;;;;5004188;28;20046;-71
2021/06/30 04:19:37;;;;;;;11.40;7.82;;;27.50;62.60;;;;;;4976890;28;20034;-71
2021/06/30 04:22:04;;;;;;;10.60;7.22;;;27.80;62.10;;;;;;4994144;28;20022;-73
2021/06/30 04:24:30;;;;;;;11.15;6.82;;;28.20;61.60;;;;;;4995167;28;20037;-75
2021/06/30 04:26:55;;;;;;;14.07;7.38;;;28.70;60.50;;;;;;4978062;28;20027;-75
2021/06/30 04:29:21;;;;;;;11.55;6.88;;;29.00;59.70;;;;;;4978127;28;20081;-76
2021/06/30 04:31:47;;;;;;;9.60;7.22;;;29.20;59.20;;;;;;4976902;28;20035;-76
2021/06/30 04:34:13;;;;;;;9.15;6.32;;;29.40;58.50;;;;;;4993849;28;20045;-76
2021/06/30 04:36:41;;;;;;;11.07;6.85;;;29.60;58.10;;;;;;4976774;28;20026;-75
2021/06/30 04:39:07;;;;;;;9.82;7.43;;;29.80;57.40;;;;;;4976497;28;20022;-75
2021/06/30 04:41:32;;;;;;;11.75;6.82;;;30.00;57.20;;;;;;4994115;28;20037;-73
2021/06/30 04:43:58;;;;;;;11.07;6.43;;;30.10;56.80;;;;;;4975625;28;20066;-75
2021/06/30 04:46:24;;;;;;;11.25;6.72;;;30.50;56.30;;;;;;4967407;28;20030;-73
2021/06/30 04:48:50;;;;;;;9.60;5.75;;;30.80;55.30;;;;;;5001288;28;20487;-74
2021/06/30 04:51:16;;;;;;;8.45;6.15;;;30.90;55.00;;;;;;4970492;28;20496;-81
2021/06/30 04:53:45;;;;;;;9.52;6.13;;;31.00;54.80;;;;;;4975314;28;20038;-80
2021/06/30 04:56:11;;;;;;;8.20;6.03;;;31.30;54.60;;;;;;4983166;28;20032;-83
2021/06/30 04:58:37;;;;;;;9.95;6.30;;;31.60;54.10;;;;;;4977954;28;20116;-83
2021/06/30 05:01:03;;;;;;;15.13;6.10;;;31.80;53.70;;;;;;4974881;28;20447;-83
2021/06/30 05:03:30;;;;;;;9.55;6.15;;;31.90;53.00;;;;;;4974067;28;20389;-79
2021/06/30 05:05:56;;;;;;;10.35;5.90;;;31.90;53.00;;;;;;4974178;28;20546;-79
2021/06/30 05:08:22;;;;;;;10.55;6.78;;;32.20;53.00;;;;;;4976454;28;20061;-84
2021/06/30 05:10:49;;;;;;;9.25;5.53;;;32.20;52.20;;;;;;4993713;28;20026;-69
2021/06/30 05:13:14;;;;;;;10.45;6.70;;;32.30;51.60;;;;;;4978628;28;20057;-69
2021/06/30 05:15:40;;;;;;;11.18;6.40;;;32.40;51.60;;;;;;4990600;28;20035;-71
2021/06/30 05:18:06;;;;;;;8.88;6.20;;;32.60;51.00;;;;;;4972437;28;20058;-73
2021/06/30 05:20:31;;;;;;;9.52;5.60;;;32.90;50.40;;;;;;4977369;28;20030;-72
2021/06/30 05:22:57;;;;;;;10.98;6.30;;;33.00;50.30;;;;;;4977446;28;20176;-71
2021/06/30 05:25:23;;;;;;;8.27;5.00;;;33.20;50.40;;;;;;4991501;28;20448;-70
2021/06/30 05:27:49;;;;;;;6.20;3.63;;;33.30;49.90;;;;;;5002876;28;20022;-70
2021/06/30 05:30:15;;;;;;;6.47;4.18;;;33.30;48.90;;;;;;4981130;28;20027;-75
2021/06/30 05:32:41;;;;;;;5.85;3.60;;;33.30;49.10;;;;;;4981791;28;20030;-72
2021/06/30 05:35:07;;;;;;;6.25;3.47;;;33.40;48.60;;;;;;4991077;28;20142;-74
2021/06/30 05:37:33;;;;;;;5.82;3.60;;;33.40;47.70;;;;;;4988589;28;20034;-70
2021/06/30 05:39:59;;;;;;;5.53;3.50;;;33.50;48.10;;;;;;4971477;28;20023;-76
2021/06/30 05:42:25;;;;;;;4.50;3.40;;;33.60;47.60;;;;;;4970643;28;20085;-73
2021/06/30 05:44:51;;;;;;;5.88;3.40;;;33.80;47.50;;;;;;4971995;28;20481;-74
2021/06/30 05:47:17;;;;;;;6.90;3.20;;;34.00;48.10;;;;;;4971378;28;20026;-72
2021/06/30 05:49:42;;;;;;;5.47;3.15;;;34.20;47.40;;;;;;4991838;28;20041;-78
2021/06/30 05:52:08;;;;;;;4.70;3.42;;;34.40;47.00;;;;;;4973570;28;20101;-74
2021/06/30 05:54:34;;;;;;;4.72;3.30;;;34.60;46.60;;;;;;4966314;28;20045;-65
2021/06/30 05:56:59;;;;;;;4.80;3.40;;;34.50;46.90;;;;;;4991140;28;20436;-68
2021/06/30 05:59:25;;;;;;;4.85;3.50;;;34.50;47.10;;;;;;4989311;28;20033;-69
2021/06/30 06:01:51;;;;;;;5.60;3.22;;;34.60;46.40;;;;;;4990520;28;20038;-67
2021/06/30 06:04:16;;;;;;;4.53;3.40;;;34.90;46.60;;;;;;4974598;28;20395;-65
2021/06/30 06:06:42;;;;;;;5.60;3.10;;;35.10;45.70;;;;;;4993816;28;20469;-67
2021/06/30 06:09:08;;;;;;;4.97;3.13;;;35.20;45.10;;;;;;4978179;28;20054;-68
2021/06/30 06:11:34;;;;;;;4.60;2.90;;;35.30;45.10;;;;;;4979912;28;20062;-68
2021/06/30 06:13:59;;;;;;;4.63;3.10;;;35.30;45.20;;;;;;4973914;28;20051;-66
2021/06/30 06:16:25;;;;;;;6.82;3.22;;;35.20;44.60;;;;;;4974071;28;20035;-71
2021/06/30 06:18:51;;;;;;;5.15;3.13;;;35.30;44.30;;;;;;4975078;28;20031;-70
2021/06/30 06:21:17;;;;;;;6.25;3.08;;;35.50;44.50;;;;;;4974220;28;20074;-67
2021/06/30 06:23:43;;;;;;;5.72;3.50;;;35.50;44.00;;;;;;4975864;28;20481;-69
2021/06/30 06:26:09;;;;;;;5.78;3.95;;;35.50;43.90;;;;;;4974911;28;20034;-70
2021/06/30 06:28:35;;;;;;;5.47;3.55;;;35.50;44.10;;;;;;4972395;28;20073;-68
2021/06/30 06:31:03;;;;;;;7.53;3.40;;;35.60;43.90;;;;;;4971701;28;20281;-69
2021/06/30 06:33:29;;;;;;;7.18;3.05;;;35.70;44.00;;;;;;4974477;28;20031;-79
2021/06/30 06:35:55;;;;;;;5.68;3.40;;;35.80;43.80;;;;;;4969969;28;20087;-71
2021/06/30 06:38:23;;;;;;;5.68;3.00;;;35.70;43.00;;;;;;4974903;28;20031;-77
2021/06/30 06:40:50;;;;;;;6.72;3.50;;;36.00;43.20;;;;;;4975079;28;20035;-75
2021/06/30 06:43:16;;;;;;;9.93;4.47;;;36.10;42.90;;;;;;4974910;28;20127;-73
2021/06/30 06:45:42;;;;;;;11.18;4.38;;;36.10;42.70;;;;;;4972704;28;20524;-71
2021/06/30 06:48:10;;;;;;;5.22;3.63;;;36.10;42.50;;;;;;4974833;28;20035;-72
2021/06/30 06:50:36;;;;;;;7.10;3.60;;;35.80;42.30;;;;;;4975634;28;20031;-73
2021/06/30 06:53:02;;;;;;;9.50;3.97;;;35.70;42.90;;;;;;4966998;28;20498;-73
2021/06/30 06:55:28;;;;;;;6.15;3.80;;;35.60;43.40;;;;;;4970225;28;20130;-72
2021/06/30 06:57:54;;;;;;;6.28;3.50;;;35.70;43.30;;;;;;4974866;28;20392;-72
2021/06/30 07:00:21;;;;;;;6.80;3.30;;;35.90;42.70;;;;;;4968556;28;20027;-72
2021/06/30 07:02:47;;;;;;;5.78;3.50;;;36.00;43.10;;;;;;4967729;28;20117;-71
2021/06/30 07:05:12;;;;;;;4.72;2.90;;;36.00;42.10;;;;;;4974003;28;20174;-72
2021/06/30 07:07:45;;;;;;;7.70;3.03;;;36.00;41.90;;;;;;4969165;28;20109;-72
2021/06/30 07:10:12;;;;;;;8.00;3.30;;;35.90;42.00;;;;;;4968782;28;20470;-71
2021/06/30 07:12:39;;;;;;;6.63;3.13;;;35.90;42.60;;;;;;4976097;28;20027;-71
2021/06/30 07:15:06;;;;;;;9.82;3.15;;;36.10;42.20;;;;;;4995829;28;20033;-70
2021/06/30 07:17:35;;;;;;;9.90;3.00;;;36.20;41.90;;;;;;4989023;28;20113;-71
2021/06/30 07:20:06;;;;;;;7.50;2.70;;;36.10;41.80;;;;;;4981392;28;20061;-75
2021/06/30 07:22:31;;;;;;;6.72;3.15;;;36.10;41.80;;;;;;4978441;28;20105;-72
2021/06/30 07:24:57;;;;;;;5.80;2.90;;;36.10;42.00;;;;;;4978130;28;20030;-73
2021/06/30 07:27:23;;;;;;;4.68;3.40;;;36.20;42.10;;;;;;4995455;28;20065;-73
2021/06/30 07:29:49;;;;;;;6.88;2.83;;;36.30;41.60;;;;;;4995405;28;20081;-72
2021/06/30 07:32:15;;;;;;;5.75;3.13;;;36.40;41.40;;;;;;4994959;28;20019;-72
2021/06/30 07:34:41;;;;;;;5.65;2.92;;;36.40;41.40;;;;;;4978017;28;20116;-72
2021/06/30 07:37:06;;;;;;;8.70;3.63;;;36.40;40.80;;;;;;4995034;28;20026;-72
2021/06/30 07:39:32;;;;;;;7.35;3.40;;;36.50;41.10;;;;;;4995262;28;20425;-72
2021/06/30 07:41:58;;;;;;;6.30;3.55;;;36.60;41.50;;;;;;4982252;28;20039;-74
2021/06/30 07:44:24;;;;;;;5.25;3.00;;;36.60;41.30;;;;;;4977444;28;20031;-72
2021/06/30 07:46:50;;;;;;;6.78;3.20;;;36.60;41.50;;;;;;4995148;28;20427;-73
2021/06/30 07:49:16;;;;;;;6.28;3.47;;;36.60;41.20;;;;;;4977708;28;20109;-72
2021/06/30 07:51:42;;;;;;;5.80;3.38;;;36.60;41.00;;;;;;4996014;28;20033;-70
2021/06/30 07:54:07;;;;;;;10.85;3.90;;;36.80;41.00;;;;;;4978811;28;20049;-70
2021/06/30 07:56:34;;;;;;;8.43;5.47;;;36.80;41.00;;;;;;4977732;28;20022;-71
2021/06/30 07:59:11;;;;;;;11.55;5.95;;;36.80;40.40;;;;;;4972170;28;20026;-71
2021/06/30 08:01:38;;;;;;;7.10;5.40;;;36.80;40.70;;;;;;4967562;28;20026;-73
2021/06/30 08:04:06;;;;;;;10.13;4.55;;;36.90;40.70;;;;;;4994493;28;20050;-73
2021/06/30 08:06:32;;;;;;;7.72;4.55;;;36.90;41.00;;;;;;4977682;28;20053;-73
2021/06/30 08:08:58;;;;;;;9.43;4.40;;;36.80;41.20;;;;;;4977340;28;20034;-73
2021/06/30 08:11:24;;;;;;;8.23;4.47;;;36.80;41.10;;;;;;4990683;28;20435;-73
2021/06/30 08:13:51;;;;;;;8.30;3.80;;;36.80;41.20;;;;;;4977286;28;20058;-73
2021/06/30 08:16:18;;;;;;;13.02;8.65;;;37.00;40.80;;;;;;4976592;28;20037;-73
2021/06/30 08:18:44;;;;;;;14.55;10.63;;;37.10;40.90;;;;;;4994740;28;20018;-73
2021/06/30 08:21:09;;;;;;;13.18;11.30;;;37.10;40.40;;;;;;4977532;28;20077;-73
2021/06/30 08:23:35;;;;;;;11.77;8.32;;;37.00;40.30;;;;;;4977033;28;20018;-72
2021/06/30 08:26:01;;;;;;;13.43;9.27;;;37.00;40.50;;;;;;4976996;28;20037;-73
2021/06/30 08:28:27;;;;;;;18.95;8.48;;;37.10;41.40;;;;;;4993773;28;20053;-74
2021/06/30 08:30:54;;;;;;;20.08;9.07;;;37.40;41.60;;;;;;4977254;28;20027;-72
2021/06/30 08:33:20;;;;;;;19.65;8.45;;;37.60;41.50;;;;;;4977595;28;20030;-72
2021/06/30 08:35:45;;;;;;;19.80;10.43;;;37.70;41.30;;;;;;4976936;28;20034;-73
2021/06/30 08:38:11;;;;;;;25.88;9.57;;;37.70;40.80;;;;;;4978041;28;20046;-72
2021/06/30 08:40:37;;;;;;;12.75;5.60;;;37.80;41.20;;;;;;4995260;28;20027;-72
2021/06/30 08:43:07;;;;;;;15.75;5.53;;;37.50;41.30;;;;;;4987618;28;20037;-73
2021/06/30 08:45:34;;;;;;;9.77;3.78;;;37.30;41.20;;;;;;4971143;28;20093;-73
2021/06/30 08:48:01;;;;;;;13.65;5.25;;;37.40;41.00;;;;;;4977200;28;20034;-73
2021/06/30 08:50:28;;;;;;;13.10;5.00;;;37.50;40.50;;;;;;4977144;28;20097;-74
2021/06/30 08:52:55;;;;;;;12.07;6.40;;;37.40;40.40;;;;;;4994280;28;20030;-72
2021/06/30 08:55:22;;;;;;;15.20;8.82;;;37.80;40.70;;;;;;4994326;28;20041;-73
2021/06/30 08:57:49;;;;;;;11.13;7.68;;;38.20;40.50;;;;;;4984661;28;20032;-75
2021/06/30 09:00:15;;;;;;;16.42;6.15;;;38.30;40.50;;;;;;4976339;28;20041;-73
2021/06/30 09:02:52;;;;;;;8.55;3.80;;;38.30;40.40;;;;;;4993619;28;20097;-74
2021/06/30 09:07:50;;;;;;;7.05;3.78;;;38.10;40.10;;;;;;4993714;28;20456;-75
2021/06/30 09:10:37;;;;;;;9.20;3.47;;;37.80;40.60;;;;;;4976165;28;20038;-73
2021/06/30 09:13:04;;;;;;;9.73;4.55;;;37.70;41.30;;;;;;4975994;28;20069;-73
2021/06/30 09:15:32;;;;;;;9.07;4.65;;;37.60;41.20;;;;;;4976632;28;20407;-75
2021/06/30 09:18:18;;;;;;;11.25;5.43;;;37.60;41.00;;;;;;4993496;28;20026;-70
2021/06/30 09:20:44;;;;;;;13.13;6.65;;;37.60;41.60;;;;;;4960977;28;20023;-71
2021/06/30 09:23:11;;;;;;;12.80;6.93;;;37.70;41.20;;;;;;4969791;28;20026;-75
2021/06/30 09:25:40;;;;;;;13.00;7.32;;;37.80;40.40;;;;;;4992724;28;20030;-71
2021/06/30 09:28:17;;;;;;;14.60;6.72;;;37.80;41.20;;;;;;4986705;28;20023;-73
2021/06/30 09:30:54;;;;;;;10.13;6.45;;;37.80;40.60;;;;;;4976166;28;20027;-72
2021/06/30 09:33:20;;;;;;;10.25;5.70;;;38.10;41.30;;;;;;4993663;28;20027;-71
2021/06/30 09:35:46;;;;;;;11.80;5.43;;;38.20;40.90;;;;;;4976398;28;20173;-71
2021/06/30 09:38:32;;;;;;;10.80;5.47;;;38.30;41.00;;;;;;4976075;28;20491;-72
2021/06/30 09:40:59;;;;;;;13.40;4.95;;;38.20;40.80;;;;;;4977106;28;20193;-70
2021/06/30 09:43:31;;;;;;;11.63;5.30;;;38.20;41.40;;;;;;4972716;28;20484;-72
2021/06/30 09:45:59;;;;;;;8.23;4.90;;;38.40;41.50;;;;;;4977039;28;20441;-72
2021/06/30 09:48:38;;;;;;;9.32;5.05;;;38.30;41.20;;;;;;4977462;28;20027;-73
2021/06/30 09:51:05;;;;;;;13.15;5.43;;;37.50;41.60;;;;;;4979318;28;20029;-74
2021/06/30 09:53:35;;;;;;;10.60;5.88;;;37.00;42.30;;;;;;4971165;28;20030;-75
2021/06/30 09:56:32;;;;;;;8.98;5.40;;;37.10;42.50;;;;;;4977676;28;20054;-72
2021/06/30 09:59:15;;;;;;;9.13;5.70;;;37.30;42.40;;;;;;4993026;28;20042;-72
2021/06/30 10:01:43;;;;;;;11.13;6.28;;;37.50;42.20;;;;;;4977306;28;20500;-75
2021/06/30 10:04:11;;;;;;;14.23;7.32;;;37.30;41.90;;;;;;4975866;28;20031;-72
2021/06/30 10:06:38;;;;;;;9.32;6.07;;;36.90;42.30;;;;;;4994261;28;20027;-72
2021/06/30 10:09:07;;;;;;;8.15;5.70;;;36.80;42.30;;;;;;4989839;28;20019;-73
2021/06/30 10:11:34;;;;;;;9.80;6.05;;;36.80;42.70;;;;;;4992954;28;20105;-70
2021/06/30 10:14:02;;;;;;;9.23;6.00;;;36.50;42.60;;;;;;4971467;28;20058;-72
2021/06/30 10:16:29;;;;;;;14.23;5.15;;;36.20;43.20;;;;;;4989772;28;20022;-74
2021/06/30 10:18:57;;;;;;;10.23;6.05;;;36.20;43.70;;;;;;4972845;28;20034;-72
2021/06/30 10:21:29;;;;;;;9.68;5.53;;;36.50;43.80;;;;;;4996424;28;20092;-72
2021/06/30 10:23:55;;;;;;;14.25;5.97;;;36.70;44.00;;;;;;4978890;28;20050;-72
2021/06/30 10:26:21;;;;;;;11.25;6.30;;;36.50;44.20;;;;;;4977455;28;20443;-74
2021/06/30 10:28:52;;;;;;;13.77;5.93;;;36.30;44.10;;;;;;4978900;28;20023;-71
2021/06/30 10:31:18;;;;;;;11.27;6.53;;;36.20;44.60;;;;;;4978040;28;20121;-72
2021/06/30 10:33:59;;;;;;;17.30;7.18;;;36.30;44.50;;;;;;4973772;28;20485;-71
2021/06/30 10:37:03;;;;;;;14.48;6.90;;;36.60;44.00;;;;;;4983564;28;20498;-75
2021/06/30 10:39:34;;;;;;;12.90;7.90;;;36.90;43.60;;;;;;4971590;28;20057;-77
2021/06/30 10:42:14;;;;;;;13.48;7.07;;;37.00;43.60;;;;;;4973366;28;20420;-75
2021/06/30 10:44:52;;;;;;;12.45;6.97;;;37.10;43.40;;;;;;4979752;28;20366;-78
2021/06/30 10:47:49;;;;;;;13.05;6.35;;;37.30;43.50;;;;;;4975521;28;20221;-71
2021/06/30 10:50:23;;;;;;;9.35;5.68;;;37.20;43.00;;;;;;4973528;28;20022;-72
2021/06/30 10:52:54;;;;;;;8.38;5.55;;;37.40;43.80;;;;;;4990392;28;20053;-70
2021/06/30 10:58:13;;;;;;;9.27;5.50;;;37.60;42.90;;;;;;4995822;28;20042;-71
2021/06/30 11:00:40;;;;;;;12.70;6.50;;;37.70;42.70;;;;;;4973288;28;20105;-73
2021/06/30 11:03:35;;;;;;;8.45;5.82;;;37.40;42.10;;;;;;4973581;28;20728;-69
2021/06/30 11:06:06;;;;;;;9.13;5.20;;;36.90;42.50;;;;;;4987618;28;20066;-73
2021/06/30 11:08:41;;;;;;;9.52;5.38;;;36.00;43.50;;;;;;4978169;28;20046;-67
2021/06/30 11:11:08;;;;;;;10.63;6.40;;;35.30;43.40;;;;;;4974539;28;20062;-71
2021/06/30 11:14:00;;;;;;;8.02;5.57;;;34.50;43.80;;;;;;4973414;28;20054;-71
2021/06/30 11:16:45;;;;;;;11.10;6.07;;;33.90;45.20;;;;;;4942431;28;20053;-70
2021/06/30 11:19:20;;;;;;;;;;;33.20;46.00;;;;;;4978558;28;20385;-72
2021/06/30 11:22:12;;;;;;;10.40;5.95;;;32.70;45.90;;;;;;4978103;28;19916;-75
2021/06/30 11:24:47;;;;;;;9.15;5.90;;;32.30;47.20;;;;;;4961489;28;20049;-69
2021/06/30 11:27:21;;;;;;;13.65;6.40;;;31.90;47.60;;;;;;4977663;28;20026;-71
2021/06/30 11:29:51;;;;;;;8.55;5.50;;;31.60;48.60;;;;;;4995676;28;20029;-71
2021/06/30 11:32:35;;;;;;;9.80;5.40;;;31.60;49.30;;;;;;4977829;28;20811;-71
2021/06/30 11:35:10;;;;;;;7.17;4.60;;;31.80;49.00;;;;;;4978043;28;20034;-71
2021/06/30 11:37:38;;;;;;;11.07;5.50;;;31.90;48.60;;;;;;4961970;28;20035;-70
2021/06/30 11:40:21;;;;;;;15.35;9.45;;;32.00;49.70;;;;;;4970658;28;20121;-71
2021/06/30 11:42:49;;;;;;;12.32;9.73;;;32.10;49.50;;;;;;4978556;28;20388;-69
2021/06/30 11:45:32;;;;;;;15.70;11.93;;;32.10;49.30;;;;;;4978201;28;20066;-70
2021/06/30 11:48:01;;;;;;;8.48;5.57;;;31.80;49.80;;;;;;4969604;28;20030;-70
2021/06/30 11:50:29;;;;;;;7.45;4.95;;;31.70;50.10;;;;;;4978042;28;20096;-75
2021/06/30 11:52:58;;;;;;;6.75;4.32;;;31.80;50.60;;;;;;4977880;28;20034;-73
2021/06/30 11:55:24;;;;;;;7.28;4.72;;;31.60;50.20;;;;;;4996269;28;20031;-73
2021/06/30 11:58:00;;;;;;;6.95;4.18;;;31.50;50.50;;;;;;4976509;28;20027;-69
2021/06/30 12:00:28;;;;;;;11.10;4.60;;;31.40;49.90;;;;;;4995317;28;20110;-68
2021/06/30 12:02:56;;;;;;;7.70;3.80;;;31.50;49.90;;;;;;4977018;28;20037;-71
2021/06/30 12:05:25;;;;;;;11.05;4.40;;;31.60;49.70;;;;;;4976766;28;20038;-70
2021/06/30 12:07:55;;;;;;;5.60;4.03;;;31.70;49.70;;;;;;4977323;28;20018;-71
2021/06/30 12:10:22;;;;;;;12.52;5.07;;;31.70;49.50;;;;;;4977144;28;20033;-71
2021/06/30 12:12:49;;;;;;;6.93;4.20;;;31.60;49.00;;;;;;4994314;28;20042;-72
2021/06/30 12:15:17;;;;;;;6.60;4.07;;;31.60;49.40;;;;;;4994831;28;20026;-71
2021/06/30 12:17:47;;;;;;;6.63;4.57;;;31.50;49.30;;;;;;4994258;28;20026;-72
2021/06/30 12:20:14;;;;;;;6.63;4.38;;;31.30;49.60;;;;;;4994744;28;20385;-71
2021/06/30 12:22:40;;;;;;;12.07;7.63;;;31.20;50.00;;;;;;4994599;28;20022;-71
2021/06/30 12:25:10;;;;;;;8.45;5.10;;;31.10;50.00;;;;;;4975636;28;20192;-71
2021/06/30 12:27:39;;;;;;;6.60;4.05;;;31.00;50.20;;;;;;4976948;28;20045;-71
2021/06/30 12:30:07;;;;;;;11.27;7.40;;;30.90;50.70;;;;;;4976599;28;20404;-72
2021/06/30 12:32:34;;;;;;;6.57;4.80;;;30.80;50.90;;;;;;4976650;28;20026;-71
2021/06/30 12:35:02;;;;;;;6.13;3.90;;;30.80;51.00;;;;;;4976992;28;20034;-73
2021/06/30 12:37:29;;;;;;;4.97;4.10;;;30.80;50.70;;;;;;4976495;28;20041;-69
2021/06/30 12:40:06;;;;;;;4.57;3.42;;;30.90;50.80;;;;;;4976702;28;20495;-69
2021/06/30 12:42:48;;;;;;;5.35;3.40;;;31.00;50.80;;;;;;4978149;28;20074;-76
2021/06/30 12:45:17;;;;;;;5.55;3.45;;;31.00;51.00;;;;;;4994037;28;20045;-69
2021/06/30 12:48:13;;;;;;;5.53;3.90;;;30.80;50.50;;;;;;4993975;28;20031;-71
2021/06/30 12:50:38;;;;;;;8.40;3.90;;;30.70;50.20;;;;;;4960692;28;20039;-70